Time,TemperatureF,DewpointF,PressureIn,WindDirection,WindDirectionDegrees,WindSpeedMPH,WindSpeedGustMPH,Humidity,HourlyPrecipIn,Conditions,Clouds,dailyrainin,SoftwareType,DateUTC
2013-09-18 00:01:00,46.7,35.9,30.27,East,79,0.0,0.0,66,0.00,,,0.00,VWS V14.01,2013-09-18 04:01:00,
2013-09-18 00:02:00,46.7,35.9,30.27,East,79,0.0,0.0,66,0.00,,,0.00,VWS V14.01,2013-09-18 04:02:00,
2013-09-18 00:07:00,46.5,35.8,30.27,East,79,0.0,0.0,66,0.00,,,0.00,VWS V14.01,2013-09-18 04:07:00,
2013-09-18 00:12:00,46.3,35.6,30.27,East,79,0.0,0.0,66,0.00,,,0.00,VWS V14.01,2013-09-18 04:12:00,
2013-09-18 00:17:00,46.1,35.4,30.27,East,79,0.0,0.0,66,0.00,,,0.00,VWS V14.01,2013-09-18 04:17:00,
2013-09-18 00:22:00,46.3,35.6,30.27,East,79,0.0,0.0,66,0.00,,,0.00,VWS V14.01,2013-09-18 04:22:00,
2013-09-18 00:27:00,46.1,35.8,30.27,East,79,0.0,0.0,67,0.00,,,0.00,VWS V14.01,2013-09-18 04:27:00,
2013-09-18 00:32:00,46.1,35.8,30.27,East,79,0.0,0.0,67,0.00,,,0.00,VWS V14.01,2013-09-18 04:32:00,
2013-09-18 00:37:00,45.8,35.5,30.27,East,79,0.0,0.0,67,0.00,,,0.00,VWS V14.01,2013-09-18 04:37:00,
2013-09-18 00:43:00,46.0,35.6,30.27,East,79,0.0,0.0,67,0.00,,,0.00,VWS V14.01,2013-09-18 04:43:00,
2013-09-18 00:48:00,46.0,35.6,30.27,East,79,0.0,0.0,67,0.00,,,0.00,VWS V14.01,2013-09-18 04:48:00,
2013-09-18 00:53:00,46.0,35.6,30.27,East,79,0.0,0.0,67,0.00,,,0.00,VWS V14.01,2013-09-18 04:53:00,
2013-09-18 00:58:00,46.1,36.2,30.27,East,79,0.0,0.0,68,0.00,,,0.00,VWS V14.01,2013-09-18 04:58:00,
2013-09-18 01:03:00,46.1,36.2,30.27,East,79,0.0,0.0,68,0.00,,,0.00,VWS V14.01,2013-09-18 05:03:00,
2013-09-18 01:08:00,46.0,36.0,30.27,East,79,0.0,0.0,68,0.00,,,0.00,VWS V14.01,2013-09-18 05:08:00,
2013-09-18 01:13:00,46.0,36.0,30.27,East,79,0.0,0.0,68,0.00,,,0.00,VWS V14.01,2013-09-18 05:13:00,
2013-09-18 01:18:00,46.0,36.0,30.27,East,79,0.0,0.0,68,0.00,,,0.00,VWS V14.01,2013-09-18 05:18:00,
2013-09-18 01:23:00,45.8,35.8,30.27,East,79,0.0,0.0,68,0.00,,,0.00,VWS V14.01,2013-09-18 05:23:00,
2013-09-18 01:28:00,45.6,35.7,30.27,East,79,0.0,0.0,68,0.00,,,0.00,VWS V14.01,2013-09-18 05:28:00,
2013-09-18 01:31:00,45.6,35.3,30.27,East,79,0.0,0.0,67,0.00,,,0.00,VWS V14.01,2013-09-18 05:31:00,
2013-09-18 01:36:00,45.4,35.5,30.24,East,79,0.0,0.0,68,0.00,,,0.00,VWS V14.01,2013-09-18 05:36:00,
2013-09-18 01:41:00,45.1,35.2,30.24,East,79,0.0,0.0,68,0.00,,,0.00,VWS V14.01,2013-09-18 05:41:00,
2013-09-18 01:46:00,45.1,35.2,30.24,East,79,0.0,0.0,68,0.00,,,0.00,VWS V14.01,2013-09-18 05:46:00,
2013-09-18 01:51:00,45.1,35.2,30.24,East,79,0.0,0.0,68,0.00,,,0.00,VWS V14.01,2013-09-18 05:51:00,
2013-09-18 01:56:00,44.9,35.0,30.24,East,79,0.0,0.0,68,0.00,,,0.00,VWS V14.01,2013-09-18 05:56:00,
2013-09-18 02:01:00,44.9,35.0,30.24,East,79,0.0,0.0,68,0.00,,,0.00,VWS V14.01,2013-09-18 06:01:00,
2013-09-18 02:06:00,44.9,35.0,30.24,East,79,0.0,0.0,68,0.00,,,0.00,VWS V14.01,2013-09-18 06:06:00,
2013-09-18 02:11:00,45.1,35.5,30.24,East,79,0.0,0.0,69,0.00,,,0.00,VWS V14.01,2013-09-18 06:11:00,
2013-09-18 02:16:00,45.1,35.5,30.24,East,79,0.0,0.0,69,0.00,,,0.00,VWS V14.01,2013-09-18 06:16:00,
2013-09-18 02:22:00,45.1,35.5,30.24,East,79,0.0,0.0,69,0.00,,,0.00,VWS V14.01,2013-09-18 06:22:00,
2013-09-18 02:27:00,45.1,35.5,30.24,East,79,0.0,0.0,69,0.00,,,0.00,VWS V14.01,2013-09-18 06:27:00,
2013-09-18 02:32:00,44.9,35.3,30.24,East,79,0.0,0.0,69,0.00,,,0.00,VWS V14.01,2013-09-18 06:32:00,
2013-09-18 02:37:00,44.7,35.2,30.24,East,79,0.0,0.0,69,0.00,,,0.00,VWS V14.01,2013-09-18 06:37:00,
2013-09-18 02:43:00,44.5,35.0,30.24,East,79,0.0,0.0,69,0.00,,,0.00,VWS V14.01,2013-09-18 06:43:00,
2013-09-18 02:48:00,44.5,35.0,30.24,East,79,0.0,0.0,69,0.00,,,0.00,VWS V14.01,2013-09-18 06:48:00,
2013-09-18 02:53:00,44.5,35.4,30.24,East,79,0.0,0.0,70,0.00,,,0.00,VWS V14.01,2013-09-18 06:53:00,
2013-09-18 02:58:00,44.3,35.2,30.24,East,79,0.0,0.0,70,0.00,,,0.00,VWS V14.01,2013-09-18 06:58:00,
2013-09-18 03:03:00,44.5,35.7,30.24,East,79,0.0,0.0,71,0.00,,,0.00,VWS V14.01,2013-09-18 07:03:00,
2013-09-18 03:08:00,44.5,35.7,30.24,East,79,0.0,0.0,71,0.00,,,0.00,VWS V14.01,2013-09-18 07:08:00,
2013-09-18 03:13:00,44.5,36.1,30.24,East,79,0.0,0.0,72,0.00,,,0.00,VWS V14.01,2013-09-18 07:13:00,
2013-09-18 03:18:00,44.5,36.1,30.24,East,79,0.0,0.0,72,0.00,,,0.00,VWS V14.01,2013-09-18 07:18:00,
2013-09-18 03:23:00,44.5,36.1,30.24,East,79,0.0,0.0,72,0.00,,,0.00,VWS V14.01,2013-09-18 07:23:00,
2013-09-18 03:28:00,44.5,36.1,30.24,East,79,0.0,0.0,72,0.00,,,0.00,VWS V14.01,2013-09-18 07:28:00,
2013-09-18 03:33:00,44.3,35.9,30.24,East,79,0.0,0.0,72,0.00,,,0.00,VWS V14.01,2013-09-18 07:33:00,
2013-09-18 03:38:00,44.2,35.7,30.24,East,79,0.0,0.0,72,0.00,,,0.00,VWS V14.01,2013-09-18 07:38:00,
2013-09-18 03:43:00,44.0,35.5,30.24,East,79,0.0,0.0,72,0.00,,,0.00,VWS V14.01,2013-09-18 07:43:00,
2013-09-18 03:48:00,44.0,35.5,30.24,East,79,0.0,0.0,72,0.00,,,0.00,VWS V14.01,2013-09-18 07:48:00,
2013-09-18 03:53:00,43.8,35.4,30.24,East,79,0.0,0.0,72,0.00,,,0.00,VWS V14.01,2013-09-18 07:53:00,
2013-09-18 03:58:00,43.8,35.4,30.24,East,79,0.0,0.0,72,0.00,,,0.00,VWS V14.01,2013-09-18 07:58:00,
2013-09-18 04:03:00,43.8,35.4,30.24,East,79,0.0,0.0,72,0.00,,,0.00,VWS V14.01,2013-09-18 08:03:00,
2013-09-18 04:08:00,43.6,35.5,30.24,East,79,0.0,0.0,73,0.00,,,0.00,VWS V14.01,2013-09-18 08:08:00,
2013-09-18 04:14:00,43.6,35.5,30.24,East,79,0.0,0.0,73,0.00,,,0.00,VWS V14.01,2013-09-18 08:14:00,
2013-09-18 04:19:00,43.6,35.5,30.24,East,79,0.0,0.0,73,0.00,,,0.00,VWS V14.01,2013-09-18 08:19:00,
2013-09-18 04:24:00,43.8,35.4,30.24,East,79,0.0,0.0,72,0.00,,,0.00,VWS V14.01,2013-09-18 08:24:00,
2013-09-18 04:29:00,43.8,35.7,30.24,East,79,0.0,0.0,73,0.00,,,0.00,VWS V14.01,2013-09-18 08:29:00,
2013-09-18 04:34:00,43.8,35.7,30.24,East,79,0.0,0.0,73,0.00,,,0.00,VWS V14.01,2013-09-18 08:34:00,
2013-09-18 04:39:00,43.8,35.7,30.24,East,79,0.0,0.0,73,0.00,,,0.00,VWS V14.01,2013-09-18 08:39:00,
2013-09-18 04:44:00,43.6,35.5,30.24,East,79,0.0,0.0,73,0.00,,,0.00,VWS V14.01,2013-09-18 08:44:00,
2013-09-18 04:49:00,43.8,35.7,30.24,East,79,0.0,0.0,73,0.00,,,0.00,VWS V14.01,2013-09-18 08:49:00,
2013-09-18 04:54:00,43.8,35.7,30.24,East,79,0.0,0.0,73,0.00,,,0.00,VWS V14.01,2013-09-18 08:54:00,
2013-09-18 04:59:00,43.8,35.7,30.24,East,79,0.0,0.0,73,0.00,,,0.00,VWS V14.01,2013-09-18 08:59:00,
2013-09-18 05:04:00,43.8,35.7,30.24,East,79,0.0,0.0,73,0.00,,,0.00,VWS V14.01,2013-09-18 09:04:00,
2013-09-18 05:09:00,43.4,35.7,30.24,East,79,0.0,0.0,74,0.00,,,0.00,VWS V14.01,2013-09-18 09:09:00,
2013-09-18 05:14:00,43.4,35.7,30.24,East,79,0.0,0.0,74,0.00,,,0.00,VWS V14.01,2013-09-18 09:14:00,
2013-09-18 05:20:00,43.4,35.7,30.24,East,79,0.0,0.0,74,0.00,,,0.00,VWS V14.01,2013-09-18 09:20:00,
2013-09-18 05:25:00,43.6,36.2,30.24,East,79,0.0,0.0,75,0.00,,,0.00,VWS V14.01,2013-09-18 09:25:00,
2013-09-18 05:30:00,44.0,36.6,30.24,East,79,0.0,0.0,75,0.00,,,0.00,VWS V14.01,2013-09-18 09:30:00,
2013-09-18 05:36:00,44.2,36.8,30.24,East,79,0.0,0.0,75,0.00,,,0.00,VWS V14.01,2013-09-18 09:36:00,
2013-09-18 05:41:00,44.2,37.1,30.24,East,79,0.0,0.0,76,0.00,,,0.00,VWS V14.01,2013-09-18 09:41:00,
2013-09-18 05:46:00,44.3,37.3,30.24,East,79,0.0,0.0,76,0.00,,,0.00,VWS V14.01,2013-09-18 09:46:00,
2013-09-18 05:51:00,44.3,37.3,30.24,East,79,0.0,0.0,76,0.00,,,0.00,VWS V14.01,2013-09-18 09:51:00,
2013-09-18 05:56:00,44.3,37.3,30.24,East,79,0.0,0.0,76,0.00,,,0.00,VWS V14.01,2013-09-18 09:56:00,
2013-09-18 06:01:00,44.2,37.1,30.24,East,79,0.0,0.0,76,0.00,,,0.00,VWS V14.01,2013-09-18 10:01:00,
2013-09-18 06:06:00,44.0,36.9,30.24,East,79,0.0,0.0,76,0.00,,,0.00,VWS V14.01,2013-09-18 10:06:00,
2013-09-18 06:11:00,44.2,37.1,30.24,East,79,0.0,0.0,76,0.00,,,0.00,VWS V14.01,2013-09-18 10:11:00,
2013-09-18 06:16:00,44.2,37.1,30.24,East,79,0.0,0.0,76,0.00,,,0.00,VWS V14.01,2013-09-18 10:16:00,
2013-09-18 06:21:00,44.2,37.1,30.24,East,79,0.0,0.0,76,0.00,,,0.00,VWS V14.01,2013-09-18 10:21:00,
2013-09-18 06:26:00,44.0,36.9,30.24,East,79,0.0,0.0,76,0.00,,,0.00,VWS V14.01,2013-09-18 10:26:00,
2013-09-18 06:31:00,43.8,36.7,30.24,East,79,0.0,0.0,76,0.00,,,0.00,VWS V14.01,2013-09-18 10:31:00,
2013-09-18 06:37:00,43.8,36.7,30.24,East,79,0.0,0.0,76,0.00,,,0.00,VWS V14.01,2013-09-18 10:37:00,
2013-09-18 06:42:00,43.8,36.7,30.24,East,79,0.0,0.0,76,0.00,,,0.00,VWS V14.01,2013-09-18 10:42:00,
2013-09-18 06:47:00,43.6,36.9,30.24,East,79,0.0,0.0,77,0.00,,,0.00,VWS V14.01,2013-09-18 10:47:00,
2013-09-18 06:52:00,43.6,36.9,30.24,East,79,0.0,0.0,77,0.00,,,0.00,VWS V14.01,2013-09-18 10:52:00,
2013-09-18 06:57:00,43.8,37.1,30.24,East,79,0.0,0.0,77,0.00,,,0.00,VWS V14.01,2013-09-18 10:57:00,
2013-09-18 07:02:00,43.8,37.1,30.24,East,79,0.0,0.0,77,0.00,,,0.00,VWS V14.01,2013-09-18 11:02:00,
2013-09-18 07:07:00,43.8,37.1,30.24,East,79,0.0,0.0,77,0.00,,,0.00,VWS V14.01,2013-09-18 11:07:00,
2013-09-18 07:12:00,44.0,37.2,30.24,East,79,0.0,0.0,77,0.00,,,0.00,VWS V14.01,2013-09-18 11:12:00,
2013-09-18 07:17:00,44.3,37.6,30.24,East,79,0.0,0.0,77,0.00,,,0.00,VWS V14.01,2013-09-18 11:17:00,
2013-09-18 07:22:00,44.5,37.8,30.24,East,79,0.0,0.0,77,0.00,,,0.00,VWS V14.01,2013-09-18 11:22:00,
2013-09-18 07:27:00,45.1,38.6,30.24,East,79,0.0,0.0,78,0.00,,,0.00,VWS V14.01,2013-09-18 11:27:00,
2013-09-18 07:32:00,45.4,39.0,30.24,East,79,0.0,0.0,78,0.00,,,0.00,VWS V14.01,2013-09-18 11:32:00,
2013-09-18 07:37:00,46.0,39.5,30.24,East,79,0.0,0.0,78,0.00,,,0.00,VWS V14.01,2013-09-18 11:37:00,
2013-09-18 07:42:00,46.5,40.0,30.24,East,79,0.0,0.0,78,0.00,,,0.00,VWS V14.01,2013-09-18 11:42:00,
2013-09-18 07:48:00,47.0,40.5,30.24,East,79,0.0,0.0,78,0.00,,,0.00,VWS V14.01,2013-09-18 11:48:00,
2013-09-18 07:53:00,47.4,40.6,30.24,East,79,0.0,0.0,77,0.00,,,0.00,VWS V14.01,2013-09-18 11:53:00,
2013-09-18 07:58:00,47.8,40.9,30.24,East,79,0.0,0.0,77,0.00,,,0.00,VWS V14.01,2013-09-18 11:58:00,
2013-09-18 08:03:00,48.3,41.1,30.24,East,79,0.0,0.0,76,0.00,,,0.00,VWS V14.01,2013-09-18 12:03:00,
2013-09-18 08:08:00,48.8,41.6,30.24,East,79,0.0,0.0,76,0.00,,,0.00,VWS V14.01,2013-09-18 12:08:00,
2013-09-18 08:13:00,49.2,41.6,30.24,East,79,0.0,0.0,75,0.00,,,0.00,VWS V14.01,2013-09-18 12:13:00,
2013-09-18 08:18:00,49.9,41.6,30.24,East,79,0.0,0.0,73,0.00,,,0.00,VWS V14.01,2013-09-18 12:18:00,
2013-09-18 08:23:00,50.3,42.0,30.24,NNW,334,0.0,0.0,73,0.00,,,0.00,VWS V14.01,2013-09-18 12:23:00,
2013-09-18 08:28:00,51.9,42.1,30.24,NNW,333,0.0,0.0,69,0.00,,,0.00,VWS V14.01,2013-09-18 12:28:00,
2013-09-18 08:33:00,53.0,42.3,30.24,NNE,31,0.0,0.0,67,0.00,,,0.00,VWS V14.01,2013-09-18 12:33:00,
2013-09-18 08:38:00,55.0,43.0,30.24,NNE,31,0.0,0.0,64,0.00,,,0.00,VWS V14.01,2013-09-18 12:38:00,
2013-09-18 08:43:00,56.0,41.0,30.24,NNE,31,0.0,0.0,57,0.00,,,0.00,VWS V14.01,2013-09-18 12:43:00,
2013-09-18 08:48:00,56.9,40.5,30.24,NNW,334,0.0,0.0,54,0.00,,,0.00,VWS V14.01,2013-09-18 12:48:00,
2013-09-18 08:53:00,57.5,39.0,30.24,NW,324,0.0,0.0,50,0.00,,,0.00,VWS V14.01,2013-09-18 12:53:00,
2013-09-18 08:58:00,57.8,38.8,30.24,NNE,26,0.0,0.0,49,0.00,,,0.00,VWS V14.01,2013-09-18 12:58:00,
2013-09-18 09:03:00,58.9,39.3,30.24,NNE,26,0.0,0.0,48,0.00,,,0.00,VWS V14.01,2013-09-18 13:03:00,
2013-09-18 09:08:00,59.5,37.0,30.24,North,353,0.0,0.0,43,0.00,,,0.00,VWS V14.01,2013-09-18 13:08:00,
2013-09-18 09:13:00,59.5,36.4,30.24,NE,55,0.0,2.2,42,0.00,,,0.00,VWS V14.01,2013-09-18 13:13:00,
2013-09-18 09:19:00,59.6,35.9,30.24,NW,316,0.0,0.0,41,0.00,,,0.00,VWS V14.01,2013-09-18 13:19:00,
2013-09-18 09:24:00,59.8,35.5,30.24,NW,321,0.0,2.7,40,0.00,,,0.00,VWS V14.01,2013-09-18 13:24:00,
2013-09-18 09:29:00,60.4,35.3,30.24,NE,35,0.0,0.0,39,0.00,,,0.00,VWS V14.01,2013-09-18 13:29:00,
2013-09-18 09:34:00,61.1,36.0,30.24,NW,320,0.0,0.0,39,0.00,,,0.00,VWS V14.01,2013-09-18 13:34:00,
2013-09-18 09:39:00,61.6,35.8,30.24,NW,321,0.0,0.0,38,0.00,,,0.00,VWS V14.01,2013-09-18 13:39:00,
2013-09-18 09:44:00,62.2,36.3,30.24,WNW,282,0.0,0.0,38,0.00,,,0.00,VWS V14.01,2013-09-18 13:44:00,
2013-09-18 09:50:00,62.5,35.2,30.24,ENE,68,0.0,0.0,36,0.00,,,0.00,VWS V14.01,2013-09-18 13:50:00,
2013-09-18 09:55:00,63.1,35.0,30.24,NE,34,0.0,0.0,35,0.00,,,0.00,VWS V14.01,2013-09-18 13:55:00,
2013-09-18 10:01:00,64.0,35.1,30.24,NE,34,5.4,5.4,34,0.00,,,0.00,VWS V14.01,2013-09-18 14:01:00,
2013-09-18 10:06:00,64.5,34.8,30.24,NNE,33,2.7,3.1,33,0.00,,,0.00,VWS V14.01,2013-09-18 14:06:00,
2013-09-18 10:11:00,65.0,34.5,30.24,NNE,33,0.0,0.0,32,0.00,,,0.00,VWS V14.01,2013-09-18 14:11:00,
2013-09-18 10:16:00,65.6,34.2,30.24,NNW,334,0.0,0.0,31,0.00,,,0.00,VWS V14.01,2013-09-18 14:16:00,
2013-09-18 10:21:00,65.4,34.0,30.24,NNW,331,4.0,4.0,31,0.00,,,0.00,VWS V14.01,2013-09-18 14:21:00,
2013-09-18 10:26:00,64.5,33.2,30.24,SSE,150,2.7,2.7,31,0.00,,,0.00,VWS V14.01,2013-09-18 14:26:00,
2013-09-18 10:31:00,64.9,34.3,30.24,NNE,25,0.0,0.0,32,0.00,,,0.00,VWS V14.01,2013-09-18 14:31:00,
2013-09-18 10:36:00,65.0,34.5,30.24,North,10,0.0,0.0,32,0.00,,,0.00,VWS V14.01,2013-09-18 14:36:00,
2013-09-18 10:42:00,64.9,34.3,30.24,NNE,26,2.7,2.7,32,0.00,,,0.00,VWS V14.01,2013-09-18 14:42:00,
2013-09-18 10:47:00,65.2,34.6,30.24,NNW,330,0.0,0.0,32,0.00,,,0.00,VWS V14.01,2013-09-18 14:47:00,
2013-09-18 10:52:00,66.3,34.8,30.24,NNW,333,3.1,3.1,31,0.00,,,0.00,VWS V14.01,2013-09-18 14:52:00,
2013-09-18 10:57:00,66.7,35.1,30.24,NNE,28,0.0,0.0,31,0.00,,,0.00,VWS V14.01,2013-09-18 14:57:00,
2013-09-18 11:02:00,67.4,35.7,30.24,NW,306,0.0,0.0,31,0.00,,,0.00,VWS V14.01,2013-09-18 15:02:00,
2013-09-18 11:07:00,67.4,35.7,30.24,NNW,328,0.0,0.0,31,0.00,,,0.00,VWS V14.01,2013-09-18 15:07:00,
2013-09-18 11:13:00,68.1,35.5,30.24,SE,141,0.0,0.0,30,0.00,,,0.00,VWS V14.01,2013-09-18 15:13:00,
2013-09-18 11:18:00,68.8,35.3,30.24,SSE,163,3.1,3.1,29,0.00,,,0.00,VWS V14.01,2013-09-18 15:18:00,
2013-09-18 11:23:00,69.9,36.2,30.21,NNW,331,0.0,0.0,29,0.00,,,0.00,VWS V14.01,2013-09-18 15:23:00,
2013-09-18 11:28:00,69.5,35.0,30.21,NNW,337,0.0,0.0,28,0.00,,,0.00,VWS V14.01,2013-09-18 15:28:00,
2013-09-18 11:34:00,69.0,34.6,30.21,ESE,112,2.2,2.2,28,0.00,,,0.00,VWS V14.01,2013-09-18 15:34:00,
2013-09-18 11:39:00,68.8,34.4,30.21,NE,39,0.0,0.0,28,0.00,,,0.00,VWS V14.01,2013-09-18 15:39:00,
2013-09-18 11:44:00,68.6,35.1,30.21,ENE,75,0.0,0.0,29,0.00,,,0.00,VWS V14.01,2013-09-18 15:44:00,
2013-09-18 11:49:00,69.2,34.7,30.21,South,185,0.0,0.0,28,0.00,,,0.00,VWS V14.01,2013-09-18 15:49:00,
2013-09-18 11:55:00,70.3,34.7,30.21,ESE,104,0.0,0.0,27,0.00,,,0.00,VWS V14.01,2013-09-18 15:55:00,
2013-09-18 12:00:00,70.6,35.0,30.21,NE,53,0.0,0.0,27,0.00,,,0.00,VWS V14.01,2013-09-18 16:00:00,
2013-09-18 12:02:00,71.0,35.3,30.21,ENE,60,0.0,0.0,27,0.00,,,0.00,VWS V14.01,2013-09-18 16:02:00,
2013-09-18 12:07:00,71.2,35.5,30.21,NNE,33,0.0,0.0,27,0.00,,,0.00,VWS V14.01,2013-09-18 16:07:00,
2013-09-18 12:12:00,70.6,35.0,30.21,South,186,4.0,4.0,27,0.00,,,0.00,VWS V14.01,2013-09-18 16:12:00,
2013-09-18 12:17:00,70.4,34.9,30.21,SSW,196,0.0,0.0,27,0.00,,,0.00,VWS V14.01,2013-09-18 16:17:00,
2013-09-18 12:22:00,71.0,35.3,30.21,NW,318,0.0,0.0,27,0.00,,,0.00,VWS V14.01,2013-09-18 16:22:00,
2013-09-18 12:27:00,70.8,35.2,30.21,WNW,285,0.0,0.0,27,0.00,,,0.00,VWS V14.01,2013-09-18 16:27:00,
2013-09-18 12:32:00,70.6,35.0,30.21,East,98,0.0,0.0,27,0.00,,,0.00,VWS V14.01,2013-09-18 16:32:00,
2013-09-18 12:37:00,71.3,34.7,30.18,South,173,0.0,0.0,26,0.00,,,0.00,VWS V14.01,2013-09-18 16:37:00,
2013-09-18 12:42:00,71.9,35.2,30.18,NW,312,0.0,0.0,26,0.00,,,0.00,VWS V14.01,2013-09-18 16:42:00,
2013-09-18 12:48:00,72.4,35.6,30.18,NE,39,0.0,0.0,26,0.00,,,0.00,VWS V14.01,2013-09-18 16:48:00,
2013-09-18 12:53:00,73.5,35.6,30.18,WNW,303,0.0,0.0,25,0.00,,,0.00,VWS V14.01,2013-09-18 16:53:00,
2013-09-18 12:58:00,72.8,35.0,30.18,NNW,337,0.0,2.7,25,0.00,,,0.00,VWS V14.01,2013-09-18 16:58:00,
2013-09-18 13:03:00,72.2,35.5,30.18,SSE,153,3.1,3.1,26,0.00,,,0.00,VWS V14.01,2013-09-18 17:03:00,
2013-09-18 13:08:00,71.5,34.9,30.18,South,189,4.9,4.9,26,0.00,,,0.00,VWS V14.01,2013-09-18 17:08:00,
2013-09-18 13:13:00,71.9,35.2,30.18,SW,218,0.0,0.0,26,0.00,,,0.00,VWS V14.01,2013-09-18 17:13:00,
2013-09-18 13:19:00,71.7,35.0,30.18,NNW,337,0.0,0.0,26,0.00,,,0.00,VWS V14.01,2013-09-18 17:19:00,
2013-09-18 13:24:00,71.9,35.2,30.18,East,95,0.0,0.0,26,0.00,,,0.00,VWS V14.01,2013-09-18 17:24:00,
2013-09-18 13:29:00,72.4,35.6,30.18,South,183,3.6,5.8,26,0.00,,,0.00,VWS V14.01,2013-09-18 17:29:00,
2013-09-18 13:34:00,72.2,35.5,30.18,ENE,58,3.6,3.6,26,0.00,,,0.00,VWS V14.01,2013-09-18 17:34:00,
2013-09-18 13:39:00,71.7,35.0,30.18,ENE,71,0.0,0.0,26,0.00,,,0.00,VWS V14.01,2013-09-18 17:39:00,
2013-09-18 13:44:00,72.4,36.6,30.18,SSW,193,2.7,2.7,27,0.00,,,0.00,VWS V14.01,2013-09-18 17:44:00,
2013-09-18 13:50:00,72.4,36.6,30.18,NNE,22,2.2,2.2,27,0.00,,,0.00,VWS V14.01,2013-09-18 17:50:00,
2013-09-18 13:55:00,72.2,36.4,30.18,NE,38,3.6,5.4,27,0.00,,,0.00,VWS V14.01,2013-09-18 17:55:00,
2013-09-18 14:00:00,71.2,35.5,30.18,East,99,2.7,3.1,27,0.00,,,0.00,VWS V14.01,2013-09-18 18:00:00,
2013-09-18 14:05:00,71.0,35.3,30.15,ESE,108,0.0,0.0,27,0.00,,,0.00,VWS V14.01,2013-09-18 18:05:00,
2013-09-18 14:10:00,70.8,35.2,30.15,SSW,194,3.1,3.1,27,0.00,,,0.00,VWS V14.01,2013-09-18 18:10:00,
2013-09-18 14:15:00,70.4,35.8,30.15,SSW,197,2.7,2.7,28,0.00,,,0.00,VWS V14.01,2013-09-18 18:15:00,
2013-09-18 14:20:00,70.6,36.0,30.15,ENE,57,2.7,2.7,28,0.00,,,0.00,VWS V14.01,2013-09-18 18:20:00,
2013-09-18 14:25:00,70.6,36.0,30.15,SE,126,2.7,2.7,28,0.00,,,0.00,VWS V14.01,2013-09-18 18:25:00,
2013-09-18 14:30:00,70.8,36.1,30.15,SSW,210,0.0,0.0,28,0.00,,,0.00,VWS V14.01,2013-09-18 18:30:00,
2013-09-18 14:36:00,70.6,36.0,30.15,SSW,202,5.4,5.4,28,0.00,,,0.00,VWS V14.01,2013-09-18 18:36:00,
2013-09-18 14:41:00,70.1,35.5,30.15,ESE,102,0.0,0.0,28,0.00,,,0.00,VWS V14.01,2013-09-18 18:41:00,
2013-09-18 14:46:00,69.5,35.9,30.15,SSW,196,4.0,4.0,29,0.00,,,0.00,VWS V14.01,2013-09-18 18:46:00,
2013-09-18 14:51:00,69.4,35.8,30.15,NE,43,2.7,2.7,29,0.00,,,0.00,VWS V14.01,2013-09-18 18:51:00,
2013-09-18 14:56:00,69.4,36.6,30.15,East,82,3.1,3.1,30,0.00,,,0.00,VWS V14.01,2013-09-18 18:56:00,
2013-09-18 15:02:00,69.2,36.5,30.15,ENE,59,5.4,5.4,30,0.00,,,0.00,VWS V14.01,2013-09-18 19:02:00,
2013-09-18 15:07:00,69.0,36.3,30.15,East,86,0.0,0.0,30,0.00,,,0.00,VWS V14.01,2013-09-18 19:07:00,
2013-09-18 15:12:00,68.8,37.0,30.15,ESE,111,0.0,2.7,31,0.00,,,0.00,VWS V14.01,2013-09-18 19:12:00,
2013-09-18 15:17:00,68.8,37.0,30.15,NE,42,3.6,3.6,31,0.00,,,0.00,VWS V14.01,2013-09-18 19:17:00,
2013-09-18 15:22:00,69.0,37.1,30.15,ENE,67,4.0,4.0,31,0.00,,,0.00,VWS V14.01,2013-09-18 19:22:00,
2013-09-18 15:27:00,69.0,37.1,30.15,SE,139,3.1,3.1,31,0.00,,,0.00,VWS V14.01,2013-09-18 19:27:00,
2013-09-18 15:32:00,69.2,37.3,30.15,SE,133,0.0,2.7,31,0.00,,,0.00,VWS V14.01,2013-09-18 19:32:00,
2013-09-18 15:38:00,69.0,37.9,30.12,South,181,3.1,3.1,32,0.00,,,0.00,VWS V14.01,2013-09-18 19:38:00,
2013-09-18 15:43:00,69.0,37.1,30.12,SW,223,5.4,5.4,31,0.00,,,0.00,VWS V14.01,2013-09-18 19:43:00,
2013-09-18 15:48:00,68.6,37.6,30.12,SW,232,4.9,4.9,32,0.00,,,0.00,VWS V14.01,2013-09-18 19:48:00,
2013-09-18 15:53:00,68.8,37.8,30.12,South,177,3.1,3.1,32,0.00,,,0.00,VWS V14.01,2013-09-18 19:53:00,
2013-09-18 15:58:00,69.0,37.1,30.12,South,176,5.4,5.4,31,0.00,,,0.00,VWS V14.01,2013-09-18 19:58:00,
2013-09-18 16:03:00,68.8,37.8,30.12,SW,232,0.0,0.0,32,0.00,,,0.00,VWS V14.01,2013-09-18 20:03:00,
2013-09-18 16:08:00,68.8,37.8,30.12,South,177,7.6,7.6,32,0.00,,,0.00,VWS V14.01,2013-09-18 20:08:00,
2013-09-18 16:13:00,68.6,37.6,30.12,South,180,2.2,2.2,32,0.00,,,0.00,VWS V14.01,2013-09-18 20:13:00,
2013-09-18 16:19:00,68.8,38.6,30.12,South,173,3.6,3.6,33,0.00,,,0.00,VWS V14.01,2013-09-18 20:19:00,
2013-09-18 16:24:00,68.5,38.2,30.12,South,191,0.0,5.8,33,0.00,,,0.00,VWS V14.01,2013-09-18 20:24:00,
2013-09-18 16:29:00,68.5,38.2,30.12,SSW,192,4.0,4.0,33,0.00,,,0.00,VWS V14.01,2013-09-18 20:29:00,
2013-09-18 16:34:00,68.3,38.1,30.12,SSW,193,4.0,4.0,33,0.00,,,0.00,VWS V14.01,2013-09-18 20:34:00,
2013-09-18 16:39:00,68.1,37.9,30.12,SSE,163,0.0,3.6,33,0.00,,,0.00,VWS V14.01,2013-09-18 20:39:00,
2013-09-18 16:44:00,68.1,37.9,30.12,SSE,153,5.8,5.8,33,0.00,,,0.00,VWS V14.01,2013-09-18 20:44:00,
2013-09-18 16:50:00,67.9,38.5,30.12,SSE,168,4.9,4.9,34,0.00,,,0.00,VWS V14.01,2013-09-18 20:50:00,
2013-09-18 16:55:00,67.7,38.4,30.12,ENE,74,2.7,2.7,34,0.00,,,0.00,VWS V14.01,2013-09-18 20:55:00,
2013-09-18 17:00:00,67.7,39.1,30.12,South,171,4.0,4.0,35,0.00,,,0.00,VWS V14.01,2013-09-18 21:00:00,
2013-09-18 17:05:00,67.6,38.2,30.12,South,191,3.6,3.6,34,0.00,,,0.00,VWS V14.01,2013-09-18 21:05:00,
2013-09-18 17:10:00,67.4,38.8,30.12,South,179,0.0,0.0,35,0.00,,,0.00,VWS V14.01,2013-09-18 21:10:00,
2013-09-18 17:16:00,67.4,38.8,30.12,South,185,4.9,4.9,35,0.00,,,0.00,VWS V14.01,2013-09-18 21:16:00,
2013-09-18 17:21:00,67.2,39.4,30.12,SSW,200,4.0,4.0,36,0.00,,,0.00,VWS V14.01,2013-09-18 21:21:00,
2013-09-18 17:26:00,67.2,39.4,30.12,South,187,3.1,4.0,36,0.00,,,0.00,VWS V14.01,2013-09-18 21:26:00,
2013-09-18 17:31:00,66.8,39.8,30.12,South,172,3.6,3.6,37,0.00,,,0.00,VWS V14.01,2013-09-18 21:31:00,
2013-09-18 17:36:00,66.7,39.6,30.12,SW,226,5.4,5.8,37,0.00,,,0.00,VWS V14.01,2013-09-18 21:36:00,
2013-09-18 17:41:00,66.3,39.3,30.12,SSW,193,0.0,0.0,37,0.00,,,0.00,VWS V14.01,2013-09-18 21:41:00,
2013-09-18 17:46:00,66.3,40.0,30.12,SSW,192,4.0,4.0,38,0.00,,,0.00,VWS V14.01,2013-09-18 21:46:00,
2013-09-18 17:52:00,66.1,39.8,30.12,SSE,157,0.0,0.0,38,0.00,,,0.00,VWS V14.01,2013-09-18 21:52:00,
2013-09-18 17:57:00,65.8,39.5,30.12,South,189,3.1,3.1,38,0.00,,,0.00,VWS V14.01,2013-09-18 21:57:00,
2013-09-18 18:02:00,65.6,39.3,30.12,South,175,4.0,4.0,38,0.00,,,0.00,VWS V14.01,2013-09-18 22:02:00,
2013-09-18 18:07:00,65.4,39.2,30.12,SSE,159,4.9,4.9,38,0.00,,,0.00,VWS V14.01,2013-09-18 22:07:00,
2013-09-18 18:12:00,65.2,39.7,30.12,SSW,210,0.0,0.0,39,0.00,,,0.00,VWS V14.01,2013-09-18 22:12:00,
2013-09-18 18:18:00,64.9,39.3,30.12,SSE,162,0.0,2.2,39,0.00,,,0.00,VWS V14.01,2013-09-18 22:18:00,
2013-09-18 18:23:00,64.5,39.0,30.12,South,188,0.0,0.0,39,0.00,,,0.00,VWS V14.01,2013-09-18 22:23:00,
2013-09-18 18:28:00,64.3,39.5,30.12,South,188,0.0,0.0,40,0.00,,,0.00,VWS V14.01,2013-09-18 22:28:00,
2013-09-18 18:33:00,64.1,39.3,30.12,South,170,5.4,5.4,40,0.00,,,0.00,VWS V14.01,2013-09-18 22:33:00,
2013-09-18 18:39:00,63.8,39.7,30.12,South,188,0.0,0.0,41,0.00,,,0.00,VWS V14.01,2013-09-18 22:39:00,
2013-09-18 18:45:00,63.6,39.5,30.12,SSW,192,0.0,0.0,41,0.00,,,0.00,VWS V14.01,2013-09-18 22:45:00,
2013-09-18 18:50:00,63.2,39.8,30.12,SSW,211,0.0,0.0,42,0.00,,,0.00,VWS V14.01,2013-09-18 22:50:00,
2013-09-18 18:55:00,63.1,39.6,30.12,South,178,3.1,3.1,42,0.00,,,0.00,VWS V14.01,2013-09-18 22:55:00,
2013-09-18 19:00:00,62.7,39.9,30.12,SSE,167,4.9,4.9,43,0.00,,,0.00,VWS V14.01,2013-09-18 23:00:00,
2013-09-18 19:05:00,62.3,39.6,30.12,WSW,243,0.0,4.0,43,0.00,,,0.00,VWS V14.01,2013-09-18 23:05:00,
2013-09-18 19:10:00,62.3,39.6,30.12,South,189,3.1,3.1,43,0.00,,,0.00,VWS V14.01,2013-09-18 23:10:00,
2013-09-18 19:16:00,62.0,39.8,30.12,SSW,203,2.2,2.2,44,0.00,,,0.00,VWS V14.01,2013-09-18 23:16:00,
2013-09-18 19:21:00,61.6,40.1,30.12,SSE,156,0.0,0.0,45,0.00,,,0.00,VWS V14.01,2013-09-18 23:21:00,
2013-09-18 19:26:00,61.3,39.8,30.12,SSW,194,0.0,3.6,45,0.00,,,0.00,VWS V14.01,2013-09-18 23:26:00,
2013-09-18 19:31:00,61.1,40.2,30.12,SSW,194,0.0,0.0,46,0.00,,,0.00,VWS V14.01,2013-09-18 23:31:00,
2013-09-18 19:36:00,60.7,40.4,30.12,South,169,2.7,2.7,47,0.00,,,0.00,VWS V14.01,2013-09-18 23:36:00,
2013-09-18 19:42:00,60.5,40.2,30.12,South,178,0.0,0.0,47,0.00,,,0.00,VWS V14.01,2013-09-18 23:42:00,
2013-09-18 19:48:00,60.2,39.9,30.12,South,181,0.0,0.0,47,0.00,,,0.00,VWS V14.01,2013-09-18 23:48:00,
2013-09-18 19:53:00,60.0,39.7,30.12,South,181,0.0,0.0,47,0.00,,,0.00,VWS V14.01,2013-09-18 23:53:00,
2013-09-18 19:58:00,59.6,39.9,30.12,South,181,0.0,0.0,48,0.00,,,0.00,VWS V14.01,2013-09-18 23:58:00,
2013-09-18 20:03:00,59.3,40.1,30.12,South,181,0.0,0.0,49,0.00,,,0.00,VWS V14.01,2013-09-19 00:03:00,
2013-09-18 20:08:00,59.1,40.0,30.12,South,181,0.0,0.0,49,0.00,,,0.00,VWS V14.01,2013-09-19 00:08:00,
2013-09-18 20:14:00,58.7,39.7,30.12,South,181,0.0,0.0,49,0.00,,,0.00,VWS V14.01,2013-09-19 00:14:00,
2013-09-18 20:19:00,58.6,39.5,30.12,South,181,0.0,0.0,49,0.00,,,0.00,VWS V14.01,2013-09-19 00:19:00,
2013-09-18 20:24:00,58.2,39.7,30.12,South,181,0.0,0.0,50,0.00,,,0.00,VWS V14.01,2013-09-19 00:24:00,
2013-09-18 20:30:00,57.8,39.8,30.12,South,181,0.0,0.0,51,0.00,,,0.00,VWS V14.01,2013-09-19 00:30:00,
2013-09-18 20:35:00,57.8,39.8,30.12,South,181,0.0,0.0,51,0.00,,,0.00,VWS V14.01,2013-09-19 00:35:00,
2013-09-18 20:40:00,57.7,40.2,30.12,South,181,0.0,0.0,52,0.00,,,0.00,VWS V14.01,2013-09-19 00:40:00,
2013-09-18 20:45:00,57.7,40.2,30.12,South,181,0.0,0.0,52,0.00,,,0.00,VWS V14.01,2013-09-19 00:45:00,
2013-09-18 20:50:00,57.5,40.5,30.12,South,181,0.0,0.0,53,0.00,,,0.00,VWS V14.01,2013-09-19 00:50:00,
2013-09-18 20:55:00,57.5,40.5,30.12,South,181,0.0,0.0,53,0.00,,,0.00,VWS V14.01,2013-09-19 00:55:00,
2013-09-18 21:01:00,57.5,41.0,30.12,South,181,0.0,0.0,54,0.00,,,0.00,VWS V14.01,2013-09-19 01:01:00,
2013-09-18 21:06:00,57.3,40.8,30.12,South,181,0.0,0.0,54,0.00,,,0.00,VWS V14.01,2013-09-19 01:06:00,
2013-09-18 21:11:00,57.3,41.3,30.12,South,181,0.0,0.0,55,0.00,,,0.00,VWS V14.01,2013-09-19 01:11:00,
2013-09-18 21:17:00,57.1,41.1,30.12,South,181,0.0,0.0,55,0.00,,,0.00,VWS V14.01,2013-09-19 01:17:00,
2013-09-18 21:22:00,56.9,41.0,30.09,South,181,0.0,0.0,55,0.00,,,0.00,VWS V14.01,2013-09-19 01:22:00,
2013-09-18 21:27:00,56.6,40.6,30.09,South,181,0.0,0.0,55,0.00,,,0.00,VWS V14.01,2013-09-19 01:27:00,
2013-09-18 21:32:00,56.4,40.5,30.09,South,181,0.0,0.0,55,0.00,,,0.00,VWS V14.01,2013-09-19 01:32:00,
2013-09-18 21:38:00,56.2,40.8,30.12,South,181,0.0,0.0,56,0.00,,,0.00,VWS V14.01,2013-09-19 01:38:00,
2013-09-18 21:43:00,55.9,40.4,30.12,South,181,0.0,0.0,56,0.00,,,0.00,VWS V14.01,2013-09-19 01:43:00,
2013-09-18 21:48:00,55.5,40.5,30.12,South,181,0.0,0.0,57,0.00,,,0.00,VWS V14.01,2013-09-19 01:48:00,
2013-09-18 21:53:00,55.3,40.4,30.12,South,181,0.0,0.0,57,0.00,,,0.00,VWS V14.01,2013-09-19 01:53:00,
2013-09-18 21:59:00,55.0,40.5,30.12,South,181,0.0,0.0,58,0.00,,,0.00,VWS V14.01,2013-09-19 01:59:00,
2013-09-18 22:04:00,54.8,40.3,30.12,South,181,0.0,0.0,58,0.00,,,0.00,VWS V14.01,2013-09-19 02:04:00,
2013-09-18 22:09:00,54.6,40.6,30.12,South,181,0.0,0.0,59,0.00,,,0.00,VWS V14.01,2013-09-19 02:09:00,
2013-09-18 22:14:00,54.4,40.8,30.12,South,181,0.0,0.0,60,0.00,,,0.00,VWS V14.01,2013-09-19 02:14:00,
2013-09-18 22:19:00,54.1,40.5,30.12,South,181,0.0,0.0,60,0.00,,,0.00,VWS V14.01,2013-09-19 02:19:00,
2013-09-18 22:24:00,53.9,40.8,30.12,South,181,0.0,0.0,61,0.00,,,0.00,VWS V14.01,2013-09-19 02:24:00,
2013-09-18 22:30:00,53.9,40.8,30.12,South,181,0.0,0.0,61,0.00,,,0.00,VWS V14.01,2013-09-19 02:30:00,
2013-09-18 22:35:00,53.7,40.6,30.12,South,181,0.0,0.0,61,0.00,,,0.00,VWS V14.01,2013-09-19 02:35:00,
2013-09-18 22:40:00,53.3,40.7,30.12,South,181,0.0,0.0,62,0.00,,,0.00,VWS V14.01,2013-09-19 02:40:00,
2013-09-18 22:45:00,52.8,40.6,30.12,South,181,0.0,0.0,63,0.00,,,0.00,VWS V14.01,2013-09-19 02:45:00,
2013-09-18 22:51:00,52.6,40.4,30.12,South,181,0.0,0.0,63,0.00,,,0.00,VWS V14.01,2013-09-19 02:51:00,
2013-09-18 22:56:00,52.4,41.0,30.12,South,181,0.0,0.0,65,0.00,,,0.00,VWS V14.01,2013-09-19 02:56:00,
2013-09-18 23:01:00,52.4,41.0,30.12,South,181,0.0,0.0,65,0.00,,,0.00,VWS V14.01,2013-09-19 03:01:00,
2013-09-18 23:07:00,52.1,41.1,30.12,South,181,0.0,0.0,66,0.00,,,0.00,VWS V14.01,2013-09-19 03:07:00,
2013-09-18 23:12:00,52.1,41.1,30.12,South,181,0.0,0.0,66,0.00,,,0.00,VWS V14.01,2013-09-19 03:12:00,
2013-09-18 23:17:00,51.7,41.1,30.12,South,181,0.0,0.0,67,0.00,,,0.00,VWS V14.01,2013-09-19 03:17:00,
2013-09-18 23:22:00,51.5,41.3,30.12,South,181,0.0,0.0,68,0.00,,,0.00,VWS V14.01,2013-09-19 03:22:00,
2013-09-18 23:27:00,51.5,41.3,30.12,South,181,0.0,0.0,68,0.00,,,0.00,VWS V14.01,2013-09-19 03:27:00,
2013-09-18 23:33:00,51.5,41.3,30.12,South,181,0.0,0.0,68,0.00,,,0.00,VWS V14.01,2013-09-19 03:33:00,
2013-09-18 23:38:00,51.5,41.7,30.12,South,181,0.0,0.0,69,0.00,,,0.00,VWS V14.01,2013-09-19 03:38:00,
2013-09-18 23:43:00,51.2,41.4,30.12,South,181,0.0,0.0,69,0.00,,,0.00,VWS V14.01,2013-09-19 03:43:00,
2013-09-18 23:48:00,51.2,41.8,30.12,South,181,0.0,0.0,70,0.00,,,0.00,VWS V14.01,2013-09-19 03:48:00,
2013-09-18 23:54:00,51.0,41.6,30.12,South,181,0.0,0.0,70,0.00,,,0.00,VWS V14.01,2013-09-19 03:54:00,
2013-09-18 23:59:00,51.0,41.6,30.12,South,181,0.0,0.0,70,0.00,,,0.00,VWS V14.01,2013-09-19 03:59:00,